createdAt,value
2017-08-23T00:02:02.644Z,25.30
2017-08-23T00:04:30.389Z,25.30
2017-08-23T00:06:58.122Z,25.30
2017-08-23T00:09:25.917Z,25.20
2017-08-23T00:11:53.722Z,25.10
2017-08-23T00:14:21.591Z,25.10
2017-08-23T00:16:49.441Z,25.20
2017-08-23T00:19:17.188Z,25.00
2017-08-23T00:21:44.964Z,25.10
2017-08-23T00:24:12.773Z,25.10
2017-08-23T00:26:40.530Z,25.10
2017-08-23T00:29:08.270Z,25.00
2017-08-23T00:31:36.017Z,25.00
2017-08-23T00:34:04.553Z,24.90
2017-08-23T00:36:32.354Z,24.90
2017-08-23T00:39:00.145Z,24.80
2017-08-23T00:41:27.975Z,24.70
2017-08-23T00:43:55.780Z,24.70
2017-08-23T00:46:23.623Z,24.80
2017-08-23T00:48:51.436Z,24.80
2017-08-23T00:51:19.191Z,24.70
2017-08-23T00:53:46.928Z,24.60
2017-08-23T00:56:14.688Z,24.60
2017-08-23T00:58:42.469Z,24.60
2017-08-23T01:01:10.292Z,24.60
2017-08-23T01:03:38.110Z,24.60
2017-08-23T01:06:05.865Z,24.50
2017-08-23T01:08:33.615Z,24.60
2017-08-23T01:11:01.423Z,24.60
2017-08-23T01:13:29.209Z,24.60
2017-08-23T01:15:57.001Z,24.50
2017-08-23T01:18:24.814Z,24.50
2017-08-23T01:20:52.608Z,24.60
2017-08-23T01:23:20.411Z,24.70
2017-08-23T01:25:48.246Z,24.80
2017-08-23T01:28:16.099Z,24.70
2017-08-23T01:30:44.627Z,24.70
2017-08-23T01:33:12.467Z,24.70
2017-08-23T01:35:42.506Z,24.60
2017-08-23T01:38:17.240Z,24.50
2017-08-23T01:44:02.416Z,24.50
2017-08-23T01:46:48.391Z,24.50
2017-08-23T01:49:20.690Z,24.50
2017-08-23T01:51:48.511Z,24.50
2017-08-23T01:54:21.530Z,24.50
2017-08-23T01:56:50.912Z,24.50
2017-08-23T01:59:19.727Z,24.40
2017-08-23T02:01:47.658Z,24.50
2017-08-23T02:04:15.713Z,24.50
2017-08-23T02:06:44.630Z,24.50
2017-08-23T02:09:15.785Z,24.40
2017-08-23T02:11:44.658Z,24.40
2017-08-23T02:14:12.578Z,24.30
2017-08-23T02:16:40.449Z,24.30
2017-08-23T02:19:08.255Z,24.20
2017-08-23T02:21:36.207Z,24.20
2017-08-23T02:24:04.072Z,24.20
2017-08-23T02:26:31.938Z,24.20
2017-08-23T02:29:00.465Z,24.10
2017-08-23T02:31:28.301Z,24.10
2017-08-23T02:33:56.176Z,24.10
2017-08-23T02:36:24.067Z,24.10
2017-08-23T02:38:51.847Z,24.00
2017-08-23T02:41:19.765Z,24.00
2017-08-23T02:43:47.611Z,23.90
2017-08-23T02:46:16.465Z,23.90
2017-08-23T02:48:44.281Z,23.80
2017-08-23T02:51:12.255Z,23.80
2017-08-23T02:53:40.654Z,23.80
2017-08-23T02:56:08.537Z,23.80
2017-08-23T02:58:43.038Z,23.80
2017-08-23T03:01:12.630Z,23.80
2017-08-23T03:03:41.183Z,23.80
2017-08-23T03:06:09.021Z,23.80
2017-08-23T03:08:36.922Z,23.70
2017-08-23T03:11:04.721Z,23.80
2017-08-23T03:13:32.522Z,23.70
2017-08-23T03:16:00.338Z,23.80
2017-08-23T03:18:28.093Z,23.80
2017-08-23T03:20:55.865Z,23.80
2017-08-23T03:23:23.681Z,23.80
2017-08-23T03:25:51.441Z,23.90
2017-08-23T03:28:19.250Z,23.90
2017-08-23T03:30:47.035Z,23.80
2017-08-23T03:33:14.811Z,23.80
2017-08-23T03:35:42.546Z,23.80
2017-08-23T03:38:10.293Z,23.90
2017-08-23T03:40:38.018Z,23.90
2017-08-23T03:43:05.833Z,23.90
2017-08-23T03:45:33.609Z,23.90
2017-08-23T03:48:01.388Z,23.90
2017-08-23T03:50:29.111Z,23.80
2017-08-23T03:52:56.897Z,23.80
2017-08-23T03:55:24.682Z,23.70
2017-08-23T03:57:52.511Z,23.60
2017-08-23T04:00:20.293Z,23.60
2017-08-23T04:02:48.020Z,23.60
2017-08-23T04:05:15.757Z,23.50
2017-08-23T04:07:43.501Z,23.60
2017-08-23T04:10:11.291Z,23.60
2017-08-23T04:12:39.050Z,23.70
2017-08-23T04:15:06.802Z,23.70
2017-08-23T04:17:34.547Z,23.70
2017-08-23T04:20:02.306Z,23.70
2017-08-23T04:22:30.028Z,23.60
2017-08-23T04:24:57.785Z,23.60
2017-08-23T04:27:25.533Z,23.60
2017-08-23T04:29:53.277Z,23.60
2017-08-23T04:32:21.056Z,23.50
2017-08-23T04:34:48.869Z,23.50
2017-08-23T04:37:16.644Z,23.50
2017-08-23T04:39:44.420Z,23.50
2017-08-23T04:42:12.200Z,23.50
2017-08-23T04:44:39.982Z,23.40
2017-08-23T04:47:07.715Z,23.30
2017-08-23T04:49:35.461Z,23.40
2017-08-23T04:52:03.202Z,23.40
2017-08-23T04:54:30.946Z,23.50
2017-08-23T04:56:58.729Z,23.60
2017-08-23T04:59:26.539Z,23.60
2017-08-23T05:01:54.277Z,23.70
2017-08-23T05:04:23.833Z,23.80
2017-08-23T05:06:51.712Z,23.80
2017-08-23T05:09:25.388Z,23.90
2017-08-23T05:11:53.191Z,24.00
2017-08-23T05:14:20.941Z,23.90
2017-08-23T05:16:48.711Z,24.00
2017-08-23T05:19:17.464Z,23.80
2017-08-23T05:21:45.224Z,23.70
2017-08-23T05:24:13.005Z,23.50
2017-08-23T05:26:40.787Z,23.40
2017-08-23T05:29:08.584Z,23.30
2017-08-23T05:31:40.399Z,23.20
2017-08-23T05:34:08.281Z,23.20
2017-08-23T05:36:36.104Z,23.30
2017-08-23T05:39:03.935Z,23.10
2017-08-23T05:41:31.727Z,23.00
2017-08-23T05:43:59.653Z,23.00
2017-08-23T05:46:27.379Z,23.00
2017-08-23T05:48:55.093Z,23.00
2017-08-23T05:51:22.949Z,23.00
2017-08-23T05:53:53.662Z,23.00
2017-08-23T05:56:23.358Z,23.00
2017-08-23T05:58:51.465Z,23.00
2017-08-23T06:01:20.665Z,23.20
2017-08-23T06:03:51.447Z,23.10
2017-08-23T06:06:22.766Z,23.10
2017-08-23T06:08:51.774Z,23.10
2017-08-23T06:11:19.500Z,23.20
2017-08-23T06:13:47.247Z,23.30
2017-08-23T06:16:15.107Z,23.30
2017-08-23T06:18:42.884Z,23.40
2017-08-23T06:21:10.689Z,23.40
2017-08-23T06:23:38.487Z,23.40
2017-08-23T06:26:06.200Z,23.30
2017-08-23T06:28:33.946Z,23.40
2017-08-23T06:31:01.674Z,23.50
2017-08-23T06:33:29.423Z,23.50
2017-08-23T06:35:57.136Z,23.50
2017-08-23T06:38:24.929Z,23.50
2017-08-23T06:40:52.676Z,23.40
2017-08-23T06:43:20.461Z,23.40
2017-08-23T06:45:48.246Z,23.40
2017-08-23T06:48:16.019Z,23.50
2017-08-23T06:50:43.848Z,23.50
2017-08-23T06:53:11.687Z,23.60
2017-08-23T06:55:39.498Z,23.70
2017-08-23T06:58:07.229Z,23.80
2017-08-23T07:00:34.963Z,23.80
2017-08-23T07:03:02.712Z,23.90
2017-08-23T07:05:31.407Z,23.90
2017-08-23T07:07:59.320Z,24.00
2017-08-23T07:10:27.045Z,24.10
2017-08-23T07:12:54.827Z,24.10
2017-08-23T07:15:22.804Z,24.20
2017-08-23T07:17:50.584Z,24.20
2017-08-23T07:20:18.312Z,24.30
2017-08-23T07:22:46.025Z,24.40
2017-08-23T07:25:13.800Z,24.50
2017-08-23T07:27:41.552Z,24.50
2017-08-23T07:30:09.337Z,24.50
2017-08-23T07:32:37.085Z,24.50
2017-08-23T07:35:04.911Z,24.60
2017-08-23T07:37:32.628Z,24.80
2017-08-23T07:40:00.352Z,24.80
2017-08-23T07:42:28.139Z,24.90
2017-08-23T07:44:55.870Z,24.90
2017-08-23T07:47:23.661Z,25.00
2017-08-23T07:49:51.392Z,25.10
2017-08-23T07:52:19.103Z,25.50
2017-08-23T07:54:47.016Z,25.80
2017-08-23T07:57:14.791Z,25.90
2017-08-23T07:59:42.593Z,26.00
2017-08-23T08:02:10.374Z,25.90
2017-08-23T08:04:38.221Z,26.00
2017-08-23T08:07:05.933Z,26.00
2017-08-23T08:09:33.700Z,26.10
2017-08-23T08:12:01.516Z,26.10
2017-08-23T08:14:29.268Z,26.00
2017-08-23T08:16:57.049Z,26.10
2017-08-23T08:19:24.844Z,26.10
2017-08-23T08:21:52.549Z,26.10
2017-08-23T08:24:20.331Z,26.10
2017-08-23T08:26:48.153Z,26.10
2017-08-23T08:29:15.920Z,26.10
2017-08-23T08:31:43.641Z,26.20
2017-08-23T08:34:11.439Z,26.20
2017-08-23T08:36:39.236Z,26.20
2017-08-23T08:39:07.026Z,26.30
2017-08-23T08:41:34.929Z,26.20
2017-08-23T08:44:02.694Z,26.20
2017-08-23T08:46:30.434Z,26.20
2017-08-23T08:48:58.358Z,26.30
2017-08-23T08:51:26.094Z,26.30
2017-08-23T08:53:53.829Z,26.10
2017-08-23T08:56:21.509Z,26.10
2017-08-23T08:58:49.229Z,26.30
2017-08-23T09:01:16.944Z,26.30
2017-08-23T09:03:44.621Z,26.20
2017-08-23T09:06:12.361Z,26.30
2017-08-23T09:08:40.100Z,26.40
2017-08-23T09:11:07.937Z,26.30
2017-08-23T09:13:35.645Z,26.30
2017-08-23T09:16:03.377Z,26.30
2017-08-23T09:18:31.060Z,26.30
2017-08-23T09:20:58.865Z,26.40
2017-08-23T09:23:27.710Z,26.30
2017-08-23T09:25:55.460Z,26.30
2017-08-23T09:28:23.234Z,26.40
2017-08-23T09:30:50.936Z,26.50
2017-08-23T09:33:18.833Z,26.50
2017-08-23T09:35:47.313Z,26.50
2017-08-23T09:38:15.124Z,26.60
2017-08-23T09:40:42.933Z,26.60
2017-08-23T09:43:10.623Z,26.60
2017-08-23T09:45:38.303Z,26.60
2017-08-23T09:48:06.113Z,26.60
2017-08-23T09:50:33.841Z,26.50
2017-08-23T09:53:01.585Z,26.50
2017-08-23T09:55:29.305Z,26.60
2017-08-23T09:57:57.017Z,26.50
2017-08-23T10:00:24.732Z,26.40
2017-08-23T10:02:52.393Z,26.60
2017-08-23T10:05:20.061Z,26.60
2017-08-23T10:07:47.769Z,26.50
2017-08-23T10:10:15.455Z,26.40
2017-08-23T10:12:43.208Z,26.50
2017-08-23T10:15:10.967Z,26.60
2017-08-23T10:17:38.679Z,26.70
2017-08-23T10:20:06.374Z,26.60
2017-08-23T10:22:34.244Z,26.70
2017-08-23T10:25:02.010Z,26.70
2017-08-23T10:27:29.732Z,26.70
2017-08-23T10:29:57.403Z,26.70
2017-08-23T10:32:25.061Z,26.70
2017-08-23T10:34:52.738Z,26.70
2017-08-23T10:37:20.416Z,26.80
2017-08-23T10:39:48.139Z,26.80
2017-08-23T10:42:16.019Z,26.70
2017-08-23T10:44:43.749Z,26.70
2017-08-23T10:47:11.431Z,26.70
2017-08-23T10:49:39.114Z,26.80
2017-08-23T10:52:06.820Z,26.70
2017-08-23T10:54:34.499Z,26.70
2017-08-23T10:57:02.254Z,26.70
2017-08-23T10:59:30.026Z,26.80
2017-08-23T11:01:57.776Z,26.90
2017-08-23T11:04:25.437Z,26.80
2017-08-23T11:06:53.132Z,26.80
2017-08-23T11:09:20.822Z,26.80
2017-08-23T11:11:48.557Z,26.80
2017-08-23T11:14:16.248Z,26.80
2017-08-23T11:16:43.921Z,26.90
2017-08-23T11:19:11.601Z,26.90
2017-08-23T11:21:39.363Z,26.80
2017-08-23T11:24:07.084Z,26.80
2017-08-23T11:26:34.819Z,26.80
2017-08-23T11:29:02.493Z,26.90
2017-08-23T11:31:30.232Z,26.80
2017-08-23T11:33:57.900Z,26.80
2017-08-23T11:36:25.604Z,26.90
2017-08-23T11:38:53.309Z,26.90
2017-08-23T11:41:21.031Z,26.90
2017-08-23T11:43:48.791Z,27.10
2017-08-23T11:46:16.445Z,27.30
2017-08-23T11:48:44.183Z,27.10
2017-08-23T11:51:11.936Z,27.00
2017-08-23T11:53:39.605Z,27.00
2017-08-23T11:56:07.324Z,26.90
2017-08-23T11:58:35.448Z,27.10
2017-08-23T12:01:03.177Z,27.00
2017-08-23T12:03:30.915Z,27.00
2017-08-23T12:05:58.658Z,26.90
2017-08-23T12:08:26.382Z,26.90
2017-08-23T12:10:54.077Z,26.80
2017-08-23T12:13:21.786Z,26.80
2017-08-23T12:15:49.519Z,26.80
2017-08-23T12:18:17.288Z,26.80
2017-08-23T12:20:44.965Z,26.80
2017-08-23T12:23:12.651Z,26.90
2017-08-23T12:25:40.323Z,26.80
2017-08-23T12:28:08.086Z,26.80
2017-08-23T12:30:35.749Z,26.80
2017-08-23T12:33:03.470Z,26.80
2017-08-23T12:35:31.274Z,26.90
2017-08-23T12:37:58.987Z,27.00
2017-08-23T12:40:26.712Z,26.90
2017-08-23T12:42:54.397Z,26.90
2017-08-23T12:45:22.143Z,26.90
2017-08-23T12:47:49.877Z,27.10
2017-08-23T12:50:17.616Z,26.90
2017-08-23T12:52:45.364Z,27.00
2017-08-23T12:55:13.036Z,27.20
2017-08-23T12:57:40.772Z,27.00
2017-08-23T13:00:08.507Z,26.90
2017-08-23T13:02:36.227Z,27.00
2017-08-23T13:05:03.987Z,27.10
2017-08-23T13:07:31.735Z,26.90
2017-08-23T13:09:59.454Z,26.80
2017-08-23T13:12:27.207Z,27.00
2017-08-23T13:14:54.932Z,27.20
2017-08-23T13:17:22.647Z,27.20
2017-08-23T13:19:50.393Z,27.10
2017-08-23T13:22:18.082Z,26.80
2017-08-23T13:24:45.797Z,27.00
2017-08-23T13:27:13.528Z,27.00
2017-08-23T13:29:41.188Z,27.30
2017-08-23T13:32:08.908Z,27.20
2017-08-23T13:34:36.589Z,27.10
2017-08-23T13:37:04.328Z,27.10
2017-08-23T13:39:32.053Z,27.00
2017-08-23T13:41:59.755Z,26.90
2017-08-23T13:44:27.434Z,26.80
2017-08-23T13:46:55.108Z,27.40
2017-08-23T13:49:22.799Z,27.60
2017-08-23T13:51:50.481Z,27.50
2017-08-23T13:54:18.148Z,27.50
2017-08-23T13:56:45.809Z,27.30
2017-08-23T13:59:13.498Z,27.10
2017-08-23T14:01:41.195Z,27.00
2017-08-23T14:04:10.316Z,27.00
2017-08-23T14:06:38.004Z,27.10
2017-08-23T14:09:05.684Z,27.20
2017-08-23T14:11:33.378Z,27.20
2017-08-23T14:14:01.052Z,27.20
2017-08-23T14:16:28.777Z,27.10
2017-08-23T14:18:56.449Z,27.20
2017-08-23T14:21:24.172Z,27.10
2017-08-23T14:23:51.846Z,27.10
2017-08-23T14:26:19.600Z,27.40
2017-08-23T14:28:47.269Z,27.40
2017-08-23T14:31:14.996Z,27.80
2017-08-23T14:33:42.763Z,27.50
2017-08-23T14:36:10.544Z,27.20
2017-08-23T14:38:38.269Z,27.40
2017-08-23T14:41:05.945Z,27.20
2017-08-23T14:43:33.621Z,27.20
2017-08-23T14:46:01.348Z,27.10
2017-08-23T14:48:29.065Z,27.00
2017-08-23T14:50:56.743Z,27.00
2017-08-23T14:53:24.420Z,27.30
2017-08-23T14:55:52.161Z,27.20
2017-08-23T14:58:19.948Z,27.10
2017-08-23T15:00:47.702Z,27.20
2017-08-23T15:03:15.433Z,27.10
2017-08-23T15:05:43.106Z,27.30
2017-08-23T15:08:10.777Z,27.20
2017-08-23T15:10:38.463Z,27.30
2017-08-23T15:13:06.177Z,27.10
2017-08-23T15:15:33.858Z,27.00
2017-08-23T15:18:01.615Z,27.20
2017-08-23T15:20:29.354Z,27.20
2017-08-23T15:22:57.134Z,27.10
2017-08-23T15:25:24.884Z,27.30
2017-08-23T15:27:52.655Z,27.20
2017-08-23T15:30:20.423Z,27.20
2017-08-23T15:32:48.145Z,27.20
2017-08-23T15:35:15.919Z,27.20
2017-08-23T15:37:43.687Z,27.20
2017-08-23T15:40:11.470Z,27.10
2017-08-23T15:42:39.189Z,27.20
2017-08-23T15:45:06.915Z,27.20
2017-08-23T15:47:34.642Z,27.40
2017-08-23T15:50:02.362Z,27.40
2017-08-23T15:52:30.076Z,27.30
2017-08-23T15:54:57.805Z,27.20
2017-08-23T15:57:25.575Z,27.20
2017-08-23T15:59:53.541Z,27.20
2017-08-23T16:02:21.263Z,27.20
2017-08-23T16:04:49.031Z,27.20
2017-08-23T16:07:16.762Z,27.20
2017-08-23T16:09:44.486Z,27.20
2017-08-23T16:12:12.222Z,27.20
2017-08-23T16:14:40.003Z,27.20
2017-08-23T16:17:07.784Z,27.30
2017-08-23T16:19:35.586Z,27.20
2017-08-23T16:22:03.341Z,27.20
2017-08-23T16:24:31.124Z,27.20
2017-08-23T16:26:58.857Z,27.20
2017-08-23T16:29:26.567Z,27.20
2017-08-23T16:31:54.363Z,27.30
2017-08-23T16:34:22.169Z,27.30
2017-08-23T16:36:49.900Z,27.30
2017-08-23T16:39:17.819Z,27.30
2017-08-23T16:41:45.540Z,27.30
2017-08-23T16:44:13.257Z,27.30
2017-08-23T16:46:41.066Z,27.20
2017-08-23T16:49:08.793Z,27.30
2017-08-23T16:51:36.813Z,27.30
2017-08-23T16:54:04.551Z,27.30
2017-08-23T16:56:32.374Z,27.40
2017-08-23T16:59:00.231Z,27.40
2017-08-23T17:01:28.098Z,27.50
2017-08-23T17:03:55.828Z,27.40
2017-08-23T17:06:23.556Z,27.40
2017-08-23T17:08:51.390Z,27.40
2017-08-23T17:11:19.120Z,27.50
2017-08-23T17:13:46.844Z,27.50
2017-08-23T17:16:14.616Z,27.60
2017-08-23T17:18:42.386Z,27.60
2017-08-23T17:21:10.096Z,27.70
2017-08-23T17:23:37.893Z,27.60
2017-08-23T17:26:05.700Z,27.70
2017-08-23T17:28:33.478Z,27.70
2017-08-23T17:31:01.360Z,27.70
2017-08-23T17:33:29.152Z,27.70
2017-08-23T17:35:56.872Z,27.70
2017-08-23T17:38:24.678Z,27.80
2017-08-23T17:40:52.410Z,27.70
2017-08-23T17:43:20.141Z,27.80
2017-08-23T17:45:47.907Z,27.80
2017-08-23T17:48:15.620Z,27.70
2017-08-23T17:50:43.422Z,27.70
2017-08-23T17:53:11.243Z,27.70
2017-08-23T17:55:38.971Z,27.70
2017-08-23T17:58:06.712Z,27.70
2017-08-23T18:00:34.843Z,27.70
2017-08-23T18:03:02.564Z,27.70
2017-08-23T18:05:30.433Z,27.70
2017-08-23T18:07:58.173Z,27.60
2017-08-23T18:10:25.975Z,27.70
2017-08-23T18:12:53.790Z,27.70
2017-08-23T18:15:21.565Z,27.70
2017-08-23T18:17:49.323Z,27.70
2017-08-23T18:20:17.035Z,27.80
2017-08-23T18:22:44.765Z,27.80
2017-08-23T18:25:12.484Z,27.70
2017-08-23T18:27:40.208Z,27.80
2017-08-23T18:30:07.983Z,27.80
2017-08-23T18:32:35.764Z,27.70
2017-08-23T18:35:03.495Z,27.70
2017-08-23T18:37:31.285Z,27.70
2017-08-23T18:39:59.091Z,27.70
2017-08-23T18:42:26.821Z,27.70
2017-08-23T18:44:54.595Z,27.70
2017-08-23T18:47:22.318Z,27.60
2017-08-23T18:49:50.035Z,27.70
2017-08-23T18:52:17.815Z,27.60
2017-08-23T18:54:45.660Z,27.60
2017-08-23T18:57:13.385Z,27.60
2017-08-23T18:59:41.178Z,27.60
2017-08-23T19:02:08.900Z,27.60
2017-08-23T19:04:36.619Z,27.50
2017-08-23T19:07:04.410Z,27.50
2017-08-23T19:09:33.187Z,27.50
2017-08-23T19:12:01.020Z,27.50
2017-08-23T19:14:28.737Z,27.50
2017-08-23T19:16:56.530Z,27.50
2017-08-23T19:19:24.296Z,27.60
2017-08-23T19:21:52.101Z,27.50
2017-08-23T19:24:19.924Z,27.50
2017-08-23T19:26:47.641Z,27.50
2017-08-23T19:29:15.433Z,27.50
2017-08-23T19:31:43.245Z,27.60
2017-08-23T19:34:12.772Z,27.60
2017-08-23T19:36:40.503Z,27.70
2017-08-23T19:39:09.730Z,27.70
2017-08-23T19:41:39.315Z,27.80
2017-08-23T19:44:07.119Z,27.80
2017-08-23T19:46:35.244Z,27.70
2017-08-23T19:49:03.338Z,27.70
2017-08-23T19:51:31.381Z,27.70
2017-08-23T19:53:59.855Z,27.70
2017-08-23T19:56:28.784Z,27.80
2017-08-23T19:58:57.468Z,27.70
2017-08-23T20:01:25.852Z,27.70
2017-08-23T20:03:55.109Z,27.70
2017-08-23T20:06:23.853Z,27.80
2017-08-23T20:08:52.543Z,27.80
2017-08-23T20:11:21.763Z,27.70
2017-08-23T20:13:50.492Z,27.70
2017-08-23T20:16:19.112Z,27.70
2017-08-23T20:18:47.977Z,27.80
2017-08-23T20:21:16.827Z,27.70
2017-08-23T20:23:45.774Z,27.70
2017-08-23T20:26:14.716Z,27.80
2017-08-23T20:28:42.497Z,27.80
2017-08-23T20:31:10.268Z,27.80
2017-08-23T20:33:38.051Z,27.80
2017-08-23T20:36:05.798Z,27.70
2017-08-23T20:38:33.598Z,27.80
2017-08-23T20:41:01.343Z,27.80
2017-08-23T20:43:29.158Z,27.70
2017-08-23T20:45:56.928Z,27.70
2017-08-23T20:48:24.728Z,27.60
2017-08-23T20:50:52.513Z,27.60
2017-08-23T20:53:20.250Z,27.50
2017-08-23T20:55:48.051Z,27.40
2017-08-23T20:58:16.827Z,27.30
2017-08-23T21:00:44.839Z,27.30
2017-08-23T21:03:13.577Z,27.30
2017-08-23T21:05:57.945Z,27.20
2017-08-23T21:08:25.792Z,27.20
2017-08-23T21:10:53.664Z,27.20
2017-08-23T21:13:21.451Z,27.00
2017-08-23T21:15:49.222Z,27.00
2017-08-23T21:18:16.959Z,27.20
2017-08-23T21:20:44.718Z,27.40
2017-08-23T21:23:12.566Z,27.30
2017-08-23T21:25:40.393Z,27.30
2017-08-23T21:28:08.242Z,27.20
2017-08-23T21:30:36.169Z,27.20
2017-08-23T21:33:03.986Z,27.10
2017-08-23T21:35:31.757Z,27.10
2017-08-23T21:37:59.542Z,27.10
2017-08-23T21:40:27.303Z,27.10
2017-08-23T21:42:55.143Z,27.10
2017-08-23T21:45:22.893Z,27.10
2017-08-23T21:47:50.663Z,27.00
2017-08-23T21:50:18.540Z,27.00
2017-08-23T21:52:46.361Z,27.20
2017-08-23T21:55:14.126Z,27.20
2017-08-23T21:57:41.947Z,27.10
2017-08-23T22:00:09.891Z,27.20
2017-08-23T22:02:37.708Z,27.40
2017-08-23T22:05:05.509Z,27.50
2017-08-23T22:07:33.341Z,27.40
2017-08-23T22:10:01.106Z,27.20
2017-08-23T22:12:28.939Z,27.10
2017-08-23T22:14:56.760Z,27.00
2017-08-23T22:17:24.512Z,26.80
2017-08-23T22:19:52.277Z,26.60
2017-08-23T22:22:20.089Z,26.50
2017-08-23T22:24:47.893Z,26.50
2017-08-23T22:27:15.651Z,26.50
2017-08-23T22:29:43.411Z,26.50
2017-08-23T22:32:11.185Z,26.50
2017-08-23T22:34:39.013Z,26.50
2017-08-23T22:37:06.862Z,26.50
2017-08-23T22:39:34.641Z,26.40
2017-08-23T22:42:02.402Z,26.40
2017-08-23T22:44:30.226Z,26.40
2017-08-23T22:46:57.989Z,26.40
2017-08-23T22:49:25.820Z,26.40
2017-08-23T22:51:53.653Z,26.40
2017-08-23T22:54:21.418Z,26.30
2017-08-23T22:56:49.172Z,26.30
2017-08-23T22:59:16.991Z,26.20
2017-08-23T23:01:44.816Z,26.10
2017-08-23T23:04:12.569Z,26.10
2017-08-23T23:06:40.325Z,26.20
2017-08-23T23:09:08.165Z,26.10
2017-08-23T23:11:35.924Z,26.10
2017-08-23T23:14:03.831Z,26.00
2017-08-23T23:16:31.646Z,26.00
2017-08-23T23:18:59.476Z,26.00
2017-08-23T23:21:27.312Z,26.00
2017-08-23T23:23:55.081Z,25.90
2017-08-23T23:26:22.855Z,25.90
2017-08-23T23:28:50.623Z,25.90
2017-08-23T23:31:18.435Z,25.90
2017-08-23T23:33:46.254Z,25.80
2017-08-23T23:36:14.102Z,25.80
2017-08-23T23:38:42.757Z,25.80
2017-08-23T23:41:10.564Z,25.70
2017-08-23T23:43:38.365Z,25.80
2017-08-23T23:46:06.131Z,25.80
2017-08-23T23:48:33.901Z,25.80
2017-08-23T23:51:02.003Z,25.80
2017-08-23T23:53:29.847Z,25.80
2017-08-23T23:55:57.682Z,25.70
2017-08-23T23:58:25.444Z,25.70
